Observation data for Northfield on 06/15/2019      Previous  Date  Next       Current Mesonet Observations  Soil Data  Daily Summary Page  Observations in Plain Language
KNOR 150500Z 19021G29KT 28/16 A2975 RMK A01 T02830161  RH  050%=      5-min Rain = 0
KNOR 150505Z 19020G28KT 28/16 A2975 RMK A01 T02830160  RH  050%=      5-min Rain = 0
KNOR 150510Z 18022G30KT 28/16 A2975 RMK A01 T02820159  RH  049%=      5-min Rain = 0
KNOR 150515Z 18020G27KT 28/16 A2975 RMK A01 T02810159  RH  050%=      5-min Rain = 0
KNOR 150520Z 18020G28KT 28/16 A2976 RMK A01 T02780160  RH  051%=      5-min Rain = 0
KNOR 150525Z 18020G27KT 28/16 A2975 RMK A01 T02760160  RH  051%=      5-min Rain = 0
KNOR 150530Z 18019G26KT 28/16 A2975 RMK A01 T02750159  RH  052%=      5-min Rain = 0
KNOR 150535Z 18021G27KT 28/16 A2976 RMK A01 T02770157  RH  050%=      5-min Rain = 0
KNOR 150540Z 18020G26KT 28/16 A2976 RMK A01 T02770157  RH  050%=      5-min Rain = 0
KNOR 150545Z 17020G28KT 28/16 A2976 RMK A01 T02760156  RH  050%=      5-min Rain = 0
KNOR 150550Z 18019G29KT 27/16 A2976 RMK A01 T02740157  RH  051%=      5-min Rain = 0
KNOR 150555Z 18019G27KT 27/16 A2976 RMK A01 T02720156  RH  051%=      5-min Rain = 0
KNOR 150600Z 18019G26KT 27/16 A2976 RMK A01 T02710156  RH  052%=      5-min Rain = 0
KNOR 150605Z 18019G28KT 27/16 A2976 RMK A01 T02700156  RH  052%=      5-min Rain = 0
KNOR 150610Z 17018G24KT 27/16 A2976 RMK A01 T02680156  RH  053%=      5-min Rain = 0
KNOR 150615Z 17019G26KT 27/16 A2976 RMK A01 T02670156  RH  053%=      5-min Rain = 0
KNOR 150620Z 17019G24KT 27/16 A2976 RMK A01 T02670156  RH  053%=      5-min Rain = 0
KNOR 150625Z 17018G23KT 27/16 A2976 RMK A01 T02660156  RH  054%=      5-min Rain = 0
KNOR 150630Z 17018G24KT 27/16 A2976 RMK A01 T02650156  RH  054%=      5-min Rain = 0
KNOR 150635Z 17018G24KT 26/16 A2976 RMK A01 T02640156  RH  054%=      5-min Rain = 0
KNOR 150640Z 17018G23KT 26/16 A2976 RMK A01 T02640156  RH  054%=      5-min Rain = 0
KNOR 150645Z 17018G24KT 26/16 A2975 RMK A01 T02620157  RH  055%=      5-min Rain = 0
KNOR 150650Z 17020G25KT 26/16 A2975 RMK A01 T02620157  RH  055%=      5-min Rain = 0
KNOR 150655Z 17020G28KT 26/16 A2975 RMK A01 T02610157  RH  055%=      5-min Rain = 0
KNOR 150700Z 17021G27KT 26/16 A2974 RMK A01 T02590157  RH  056%=      5-min Rain = 0
KNOR 150705Z 17020G26KT 26/16 A2974 RMK A01 T02580157  RH  056%=      5-min Rain = 0
KNOR 150710Z 17018G24KT 26/16 A2975 RMK A01 T02570157  RH  056%=      5-min Rain = 0
KNOR 150715Z 18019G25KT 26/16 A2975 RMK A01 T02570157  RH  057%=      5-min Rain = 0
KNOR 150720Z 18016G21KT 26/16 A2975 RMK A01 T02550157  RH  057%=      5-min Rain = 0
KNOR 150725Z 18015G22KT 25/16 A2975 RMK A01 T02520157  RH  058%=      5-min Rain = 0
KNOR 150730Z 18016KT 25/16 A2975 RMK A01 T02510157  RH  059%=      5-min Rain = 0
KNOR 150735Z 18016G22KT 25/16 A2974 RMK A01 T02510157  RH  059%=      5-min Rain = 0
KNOR 150740Z 18018G23KT 25/16 A2974 RMK A01 T02510157  RH  058%=      5-min Rain = 0
KNOR 150745Z 18016G26KT 25/16 A2974 RMK A01 T02500157  RH  059%=      5-min Rain = 0
KNOR 150750Z 18016G21KT 25/16 A2974 RMK A01 T02490157  RH  059%=      5-min Rain = 0
KNOR 150755Z 19016G21KT 25/16 A2974 RMK A01 T02480157  RH  060%=      5-min Rain = 0
KNOR 150800Z 19014G19KT 25/16 A2974 RMK A01 T02450157  RH  061%=      5-min Rain = 0
KNOR 150805Z 19013KT 24/16 A2974 RMK A01 T02420157  RH  062%=      5-min Rain = 0
KNOR 150810Z 19013G18KT 24/16 A2973 RMK A01 T02400158  RH  063%=      5-min Rain = 0
KNOR 150815Z 19013G18KT 24/16 A2973 RMK A01 T02390158  RH  063%=      5-min Rain = 0
KNOR 150820Z 20012G17KT 24/16 A2973 RMK A01 T02380158  RH  064%=      5-min Rain = 0
KNOR 150825Z 20013KT 24/16 A2973 RMK A01 T02370158  RH  064%=      5-min Rain = 0
KNOR 150830Z 20014KT 24/16 A2973 RMK A01 T02360158  RH  065%=      5-min Rain = 0
KNOR 150835Z 20013KT 24/16 A2973 RMK A01 T02350158  RH  065%=      5-min Rain = 0
KNOR 150840Z 20013G18KT 23/16 A2972 RMK A01 T02340159  RH  065%=      5-min Rain = 0
KNOR 150845Z 20012G19KT 23/16 A2972 RMK A01 T02340158  RH  066%=      5-min Rain = 0
KNOR 150850Z 20013G18KT 23/16 A2972 RMK A01 T02340158  RH  066%=      5-min Rain = 0
KNOR 150855Z 20012KT 23/16 A2973 RMK A01 T02330158  RH  066%=      5-min Rain = 0
KNOR 150900Z 20011G16KT 23/16 A2972 RMK A01 T02320158  RH  066%=      5-min Rain = 0
KNOR 150905Z 20011G16KT 23/16 A2972 RMK A01 T02310157  RH  066%=      5-min Rain = 0
KNOR 150910Z 20011KT 23/16 A2972 RMK A01 T02320157  RH  066%=      5-min Rain = 0
KNOR 150915Z 21011G16KT 23/16 A2972 RMK A01 T02310156  RH  066%=      5-min Rain = 0
KNOR 150920Z 21011KT 23/16 A2972 RMK A01 T02320156  RH  065%=      5-min Rain = 0
KNOR 150925Z 21010G15KT 23/16 A2972 RMK A01 T02300155  RH  065%=      5-min Rain = 0
KNOR 150930Z 21010KT 23/15 A2972 RMK A01 T02300154  RH  065%=      5-min Rain = 0
KNOR 150935Z 21010KT 23/15 A2972 RMK A01 T02310154  RH  065%=      5-min Rain = 0
KNOR 150940Z 21010G15KT 23/15 A2973 RMK A01 T02300153  RH  065%=      5-min Rain = 0
KNOR 150945Z 21009KT 23/15 A2973 RMK A01 T02300152  RH  065%=      5-min Rain = 0
KNOR 150950Z 21009KT 23/15 A2972 RMK A01 T02280152  RH  065%=      5-min Rain = 0
KNOR 150955Z 20009KT 23/15 A2972 RMK A01 T02290151  RH  064%=      5-min Rain = 0
KNOR 151000Z 20009KT 23/15 A2972 RMK A01 T02290150  RH  064%=      5-min Rain = 0
KNOR 151005Z 20009G15KT 23/15 A2972 RMK A01 T02280150  RH  064%=      5-min Rain = 0
KNOR 151010Z 19010KT 23/15 A2972 RMK A01 T02310149  RH  063%=      5-min Rain = 0
KNOR 151015Z 19009KT 23/15 A2972 RMK A01 T02300148  RH  063%=      5-min Rain = 0
KNOR 151020Z 18009KT 23/15 A2972 RMK A01 T02270148  RH  064%=      5-min Rain = 0
KNOR 151025Z 19010KT 23/15 A2972 RMK A01 T02300148  RH  063%=      5-min Rain = 0
KNOR 151030Z 19011KT 23/15 A2972 RMK A01 T02300147  RH  062%=      5-min Rain = 0
KNOR 151035Z 19011KT 23/15 A2972 RMK A01 T02320146  RH  061%=      5-min Rain = 0
KNOR 151040Z 19011KT 23/15 A2972 RMK A01 T02320146  RH  061%=      5-min Rain = 0
KNOR 151045Z 19011KT 23/15 A2972 RMK A01 T02330145  RH  060%=      5-min Rain = 0
KNOR 151050Z 20011KT 23/15 A2972 RMK A01 T02320145  RH  060%=      5-min Rain = 0
KNOR 151055Z 20011KT 23/14 A2972 RMK A01 T02340144  RH  060%=      5-min Rain = 0
KNOR 151100Z 21011KT 23/14 A2972 RMK A01 T02330144  RH  060%=      5-min Rain = 0
KNOR 151105Z 21010KT 23/14 A2972 RMK A01 T02330144  RH  060%=      5-min Rain = 0
KNOR 151110Z 22008KT 23/14 A2973 RMK A01 T02290144  RH  061%=      5-min Rain = 0
KNOR 151115Z 22008KT 23/14 A2973 RMK A01 T02270144  RH  062%=      5-min Rain = 0
KNOR 151120Z 22008KT 22/14 A2973 RMK A01 T02240144  RH  063%=      5-min Rain = 0
KNOR 151125Z 22007KT 22/14 A2973 RMK A01 T02240143  RH  063%=      5-min Rain = 0
KNOR 151130Z 22007KT 22/14 A2973 RMK A01 T02240143  RH  063%=      5-min Rain = 0
KNOR 151135Z 23006KT 22/14 A2973 RMK A01 T02220143  RH  064%=      5-min Rain = 0
KNOR 151140Z 22005KT 22/14 A2974 RMK A01 T02220142  RH  063%=      5-min Rain = 0
KNOR 151145Z 23004KT 22/14 A2974 RMK A01 T02220142  RH  063%=      5-min Rain = 0
KNOR 151150Z 22003KT 22/14 A2975 RMK A01 T02230141  RH  062%=      5-min Rain = 0
KNOR 151155Z 25001KT 22/14 A2976 RMK A01 T02240141  RH  062%=      5-min Rain = 0
KNOR 151200Z 19002KT 22/14 A2976 RMK A01 T02220143  RH  063%=      5-min Rain = 0
KNOR 151205Z 15004KT 22/14 A2975 RMK A01 T02220144  RH  064%=      5-min Rain = 0
KNOR 151210Z 12005KT 22/15 A2976 RMK A01 T02200145  RH  065%=      5-min Rain = 0
KNOR 151215Z 13007KT 22/15 A2976 RMK A01 T02180146  RH  067%=      5-min Rain = 0
KNOR 151220Z 15006KT 22/15 A2976 RMK A01 T02180147  RH  067%=      5-min Rain = 0
KNOR 151225Z 15006KT 22/15 A2976 RMK A01 T02210149  RH  066%=      5-min Rain = 0
KNOR 151230Z 15005KT 23/15 A2976 RMK A01 T02250150  RH  065%=      5-min Rain = 0
KNOR 151235Z 15005KT 23/15 A2976 RMK A01 T02300151  RH  064%=      5-min Rain = 0
KNOR 151240Z 14004KT 23/15 A2976 RMK A01 T02340152  RH  063%=      5-min Rain = 0
KNOR 151245Z 13006KT 24/15 A2976 RMK A01 T02370152  RH  061%=      5-min Rain = 0
KNOR 151250Z 14005KT 24/15 A2976 RMK A01 T02400154  RH  061%=      5-min Rain = 0
KNOR 151255Z 15006KT 24/16 A2976 RMK A01 T02420155  RH  061%=      5-min Rain = 0
KNOR 151300Z 16006KT 24/15 A2976 RMK A01 T02440154  RH  060%=      5-min Rain = 0
KNOR 151305Z 18007KT 25/15 A2976 RMK A01 T02470151  RH  058%=      5-min Rain = 0
KNOR 151310Z 18006KT 25/15 A2976 RMK A01 T02490151  RH  057%=      5-min Rain = 0
KNOR 151315Z 16006KT 25/15 A2976 RMK A01 T02510152  RH  056%=      5-min Rain = 0
KNOR 151320Z 15006KT 25/15 A2976 RMK A01 T02540153  RH  056%=      5-min Rain = 0
KNOR 151325Z 15006KT 25/15 A2977 RMK A01 T02540152  RH  056%=      5-min Rain = 0
KNOR 151330Z 14005KT 26/16 A2977 RMK A01 T02560155  RH  056%=      5-min Rain = 0
KNOR 151335Z 16007KT 26/15 A2977 RMK A01 T02580153  RH  055%=      5-min Rain = 0
KNOR 151340Z 17009KT 26/15 A2977 RMK A01 T02580152  RH  055%=      5-min Rain = 0
KNOR 151345Z 19009KT 26/15 A2977 RMK A01 T02570153  RH  055%=      5-min Rain = 0
KNOR 151350Z 20011KT 26/15 A2976 RMK A01 T02580152  RH  054%=      5-min Rain = 0
KNOR 151355Z 19010KT 26/15 A2976 RMK A01 T02600153  RH  054%=      5-min Rain = 0
KNOR 151400Z 18008G13KT 26/16 A2976 RMK A01 T02630155  RH  054%=      5-min Rain = 0
KNOR 151405Z 17010KT 26/15 A2976 RMK A01 T02640154  RH  053%=      5-min Rain = 0
KNOR 151410Z 17009G14KT 27/16 A2976 RMK A01 T02670156  RH  053%=      5-min Rain = 0
KNOR 151415Z 18007KT 27/16 A2977 RMK A01 T02690156  RH  052%=      5-min Rain = 0
KNOR 151420Z 19008KT 27/16 A2977 RMK A01 T02700156  RH  052%=      5-min Rain = 0
KNOR 151425Z 19010KT 27/15 A2977 RMK A01 T02700154  RH  051%=      5-min Rain = 0
KNOR 151430Z 19009KT 27/16 A2977 RMK A01 T02730155  RH  051%=      5-min Rain = 0
KNOR 151435Z 18007KT 28/16 A2977 RMK A01 T02780157  RH  050%=      5-min Rain = 0
KNOR 151440Z 17008G14KT 28/16 A2976 RMK A01 T02800158  RH  050%=      5-min Rain = 0
KNOR 151445Z 18007KT 28/16 A2976 RMK A01 T02810157  RH  049%=      5-min Rain = 0
KNOR 151450Z 19009KT 28/15 A2976 RMK A01 T02840153  RH  047%=      5-min Rain = 0
KNOR 151455Z 20012KT 29/15 A2975 RMK A01 T02880149  RH  045%=      5-min Rain = 0
KNOR 151500Z 21012G19KT 29/15 A2974 RMK A01 T02880145  RH  043%=      5-min Rain = 0
KNOR 151505Z 23010G15KT 29/14 A2975 RMK A01 T02900141  RH  042%=      5-min Rain = 0
KNOR 151510Z 21009KT 29/14 A2975 RMK A01 T02940144  RH  042%=      5-min Rain = 0
KNOR 151515Z 23007G12KT 30/14 A2975 RMK A01 T02950141  RH  041%=      5-min Rain = 0
KNOR 151520Z 22008KT 30/14 A2976 RMK A01 T02970141  RH  040%=      5-min Rain = 0
KNOR 151525Z 20009G14KT 30/14 A2975 RMK A01 T02950141  RH  041%=      5-min Rain = 0
KNOR 151530Z 24008KT 30/14 A2976 RMK A01 T02970139  RH  040%=      5-min Rain = 0
KNOR 151535Z 23006G11KT 30/14 A2976 RMK A01 T02980141  RH  040%=      5-min Rain = 0
KNOR 151540Z 20008KT 30/14 A2975 RMK A01 T02980143  RH  041%=      5-min Rain = 0
KNOR 151545Z 23005KT 30/14 A2975 RMK A01 T02960139  RH  040%=      5-min Rain = 0
KNOR 151550Z 21007KT 30/14 A2975 RMK A01 T02980144  RH  041%=      5-min Rain = 0
KNOR 151555Z 23007KT 30/14 A2975 RMK A01 T03020144  RH  040%=      5-min Rain = 0
KNOR 151600Z 24008KT 30/14 A2975 RMK A01 T03010139  RH  039%=      5-min Rain = 0
KNOR 151605Z 25006G12KT 30/14 A2976 RMK A01 T03030139  RH  038%=      5-min Rain = 0
KNOR 151610Z 26007KT 30/14 A2976 RMK A01 T03020135  RH  038%=      5-min Rain = 0
KNOR 151615Z 25010KT 31/14 A2976 RMK A01 T03060140  RH  038%=      5-min Rain = 0
KNOR 151620Z 26006KT 31/14 A2976 RMK A01 T03070139  RH  038%=      5-min Rain = 0
KNOR 151625Z 24007KT 31/14 A2976 RMK A01 T03060138  RH  037%=      5-min Rain = 0
KNOR 151630Z 26009KT 31/14 A2976 RMK A01 T03080136  RH  037%=      5-min Rain = 0
KNOR 151635Z 25006KT 31/13 A2976 RMK A01 T03060133  RH  036%=      5-min Rain = 0
KNOR 151640Z 27006KT 31/13 A2977 RMK A01 T03110134  RH  035%=      5-min Rain = 0
KNOR 151645Z 23004KT 31/13 A2977 RMK A01 T03120130  RH  034%=      5-min Rain = 0
KNOR 151650Z 24004KT 31/13 A2977 RMK A01 T03100129  RH  035%=      5-min Rain = 0
KNOR 151655Z 23005KT 31/14 A2977 RMK A01 T03140135  RH  035%=      5-min Rain = 0
KNOR 151700Z 26005KT 32/13 A2977 RMK A01 T03160134  RH  034%=      5-min Rain = 0
KNOR 151705Z 27003G8KT 31/13 A2977 RMK A01 T03140132  RH  034%=      5-min Rain = 0
KNOR 151710Z 25004KT 32/13 A2977 RMK A01 T03160129  RH  033%=      5-min Rain = 0
KNOR 151715Z 27005KT 32/13 A2976 RMK A01 T03180130  RH  033%=      5-min Rain = 0
KNOR 151720Z 28004KT 32/13 A2976 RMK A01 T03190128  RH  032%=      5-min Rain = 0
KNOR 151725Z 29006KT 32/12 A2977 RMK A01 T03190121  RH  031%=      5-min Rain = 0
KNOR 151730Z 28006KT 32/12 A2976 RMK A01 T03210120  RH  030%=      5-min Rain = 0
KNOR 151735Z 27004G9KT 32/12 A2977 RMK A01 T03220122  RH  031%=      5-min Rain = 0
KNOR 151740Z 25006KT 32/12 A2976 RMK A01 T03220119  RH  030%=      5-min Rain = 0
KNOR 151745Z 30002G7KT 32/11 A2977 RMK A01 T03200109  RH  028%=      5-min Rain = 0
KNOR 151750Z 22002KT 32/11 A2976 RMK A01 T03200113  RH  029%=      5-min Rain = 0
KNOR 151755Z 18002KT 32/11 A2976 RMK A01 T03220112  RH  029%=      5-min Rain = 0
KNOR 151800Z 24004KT 33/12 A2976 RMK A01 T03270120  RH  029%=      5-min Rain = 0
KNOR 151805Z 26004KT 33/12 A2976 RMK A01 T03290119  RH  029%=      5-min Rain = 0
KNOR 151810Z 27002KT 33/11 A2976 RMK A01 T03250107  RH  027%=      5-min Rain = 0
KNOR 151815Z 22003KT 33/11 A2976 RMK A01 T03260113  RH  028%=      5-min Rain = 0
KNOR 151820Z 20003KT 33/12 A2976 RMK A01 T03280117  RH  029%=      5-min Rain = 0
KNOR 151825Z 16003KT 33/11 A2976 RMK A01 T03290114  RH  028%=      5-min Rain = 0
KNOR 151830Z 23001G7KT 33/11 A2976 RMK A01 T03300112  RH  027%=      5-min Rain = 0
KNOR 151835Z 23006KT 33/12 A2976 RMK A01 T03300119  RH  029%=      5-min Rain = 0
KNOR 151840Z 22005KT 33/12 A2976 RMK A01 T03320116  RH  028%=      5-min Rain = 0
KNOR 151845Z 20003KT 33/12 A2976 RMK A01 T03340117  RH  028%=      5-min Rain = 0
KNOR 151850Z 25005KT 34/12 A2975 RMK A01 T03370119  RH  028%=      5-min Rain = 0
KNOR 151855Z 25005KT 33/11 A2976 RMK A01 T03310114  RH  028%=      5-min Rain = 0
KNOR 151900Z 18001KT 33/12 A2976 RMK A01 T03340115  RH  027%=      5-min Rain = 0
KNOR 151905Z 21003G8KT 34/12 A2976 RMK A01 T03360116  RH  027%=      5-min Rain = 0
KNOR 151910Z 21006KT 34/12 A2975 RMK A01 T03400123  RH  028%=      5-min Rain = 0
KNOR 151915Z 28003KT 34/12 A2975 RMK A01 T03380118  RH  027%=      5-min Rain = 0
KNOR 151920Z 23004KT 34/12 A2975 RMK A01 T03390121  RH  028%=      5-min Rain = 0
KNOR 151925Z 22005KT 34/12 A2975 RMK A01 T03420124  RH  028%=      5-min Rain = 0
KNOR 151930Z 26005KT 34/13 A2975 RMK A01 T03430126  RH  028%=      5-min Rain = 0
KNOR 151935Z 28004G9KT 34/12 A2975 RMK A01 T03420123  RH  027%=      5-min Rain = 0
KNOR 151940Z 21003KT 35/13 A2975 RMK A01 T03450126  RH  028%=      5-min Rain = 0
KNOR 151945Z 26003KT 35/13 A2975 RMK A01 T03490129  RH  028%=      5-min Rain = 0
KNOR 151950Z 24004KT 35/13 A2975 RMK A01 T03480130  RH  028%=      5-min Rain = 0
KNOR 151955Z 30004G9KT 35/14 A2975 RMK A01 T03520136  RH  029%=      5-min Rain = 0
KNOR 152000Z 32005KT 35/14 A2975 RMK A01 T03510137  RH  029%=      5-min Rain = 0
KNOR 152005Z 28005KT 35/14 A2975 RMK A01 T03500135  RH  029%=      5-min Rain = 0
KNOR 152010Z 29004G9KT 35/14 A2975 RMK A01 T03510136  RH  029%=      5-min Rain = 0
KNOR 152015Z 32005KT 35/13 A2975 RMK A01 T03500129  RH  028%=      5-min Rain = 0
KNOR 152020Z 26004KT 35/13 A2975 RMK A01 T03490131  RH  028%=      5-min Rain = 0
KNOR 152025Z 30006G11KT 35/14 A2975 RMK A01 T03520137  RH  029%=      5-min Rain = 0
KNOR 152030Z 35006KT 35/14 A2974 RMK A01 T03510139  RH  029%=      5-min Rain = 0
KNOR 152035Z 33008KT 35/14 A2974 RMK A01 T03540140  RH  029%=      5-min Rain = 0
KNOR 152040Z 00007KT 35/14 A2974 RMK A01 T03530141  RH  029%=      5-min Rain = 0
KNOR 152045Z 01006KT 35/14 A2974 RMK A01 T03500139  RH  029%=      5-min Rain = 0
KNOR 152050Z 35005KT 35/14 A2974 RMK A01 T03480137  RH  029%=      5-min Rain = 0
KNOR 152055Z 34005KT 35/14 A2974 RMK A01 T03470138  RH  030%=      5-min Rain = 0
KNOR 152100Z 31006KT 35/14 A2974 RMK A01 T03510141  RH  030%=      5-min Rain = 0
KNOR 152105Z 28006KT 34/14 A2974 RMK A01 T03410135  RH  030%=      5-min Rain = 0
KNOR 152110Z 29004KT 33/13 A2974 RMK A01 T03330133  RH  031%=      5-min Rain = 0
KNOR 152115Z 32002KT 33/13 A2974 RMK A01 T03330131  RH  031%=      5-min Rain = 0
KNOR 152120Z 29006KT 33/14 A2974 RMK A01 T03290141  RH  034%=      5-min Rain = 0
KNOR 152125Z 28005KT 32/14 A2975 RMK A01 T03240143  RH  035%=      5-min Rain = 0
KNOR 152130Z 28003KT 32/15 A2974 RMK A01 T03230150  RH  037%=      5-min Rain = 0
KNOR 152135Z 34004KT 33/15 A2973 RMK A01 T03290150  RH  036%=      5-min Rain = 0
KNOR 152140Z 34004KT 33/15 A2973 RMK A01 T03290148  RH  035%=      5-min Rain = 0
KNOR 152145Z 33006KT 33/14 A2973 RMK A01 T03280140  RH  034%=      5-min Rain = 0
KNOR 152150Z 34003KT 33/13 A2973 RMK A01 T03280132  RH  032%=      5-min Rain = 0
KNOR 152155Z 36001KT 33/13 A2973 RMK A01 T03310134  RH  031%=      5-min Rain = 0
KNOR 152200Z 03002KT 33/14 A2973 RMK A01 T03320141  RH  033%=      5-min Rain = 0
KNOR 152205Z 12003KT 33/15 A2973 RMK A01 T03280151  RH  036%=      5-min Rain = 0
KNOR 152210Z 16001KT 32/18 A2973 RMK A01 T03230179  RH  045%=      5-min Rain = 0
KNOR 152215Z 16002KT 32/18 A2973 RMK A01 T03180184  RH  047%=      5-min Rain = 0
KNOR 152220Z 11003KT 32/19 A2973 RMK A01 T03170186  RH  048%=      5-min Rain = 0
KNOR 152225Z 06003KT 31/19 A2972 RMK A01 T03130192  RH  051%=      5-min Rain = 0
KNOR 152230Z 13003KT 31/20 A2972 RMK A01 T03090200  RH  055%=      5-min Rain = 0
KNOR 152235Z 13001KT 31/20 A2972 RMK A01 T03110200  RH  055%=      5-min Rain = 0
KNOR 152240Z 35000KT 31/19 A2973 RMK A01 T03140189  RH  050%=      5-min Rain = 0
KNOR 152245Z 22002KT 31/21 A2973 RMK A01 T03130206  RH  056%=      5-min Rain = 0
KNOR 152250Z 24002KT 31/21 A2973 RMK A01 T03090208  RH  058%=      5-min Rain = 0
KNOR 152255Z 02001KT 31/21 A2972 RMK A01 T03090205  RH  057%=      5-min Rain = 0
KNOR 152300Z 06004KT 31/18 A2971 RMK A01 T03110182  RH  049%=      5-min Rain = 0
KNOR 152305Z 06004KT 31/18 A2972 RMK A01 T03100176  RH  047%=      5-min Rain = 0
KNOR 152310Z 05003KT 31/18 A2972 RMK A01 T03080175  RH  047%=      5-min Rain = 0
KNOR 152315Z 11000KT 31/18 A2972 RMK A01 T03070181  RH  050%=      5-min Rain = 0
KNOR 152320Z 03001KT 30/18 A2972 RMK A01 T03030180  RH  050%=      5-min Rain = 0
KNOR 152325Z 03002KT 30/18 A2972 RMK A01 T03030176  RH  049%=      5-min Rain = 0
KNOR 152330Z 03002KT 30/17 A2972 RMK A01 T03030174  RH  049%=      5-min Rain = 0
KNOR 152335Z 05003KT 31/17 A2972 RMK A01 T03050165  RH  045%=      5-min Rain = 0
KNOR 152340Z 07004KT 30/17 A2972 RMK A01 T03020168  RH  047%=      5-min Rain = 0
KNOR 152345Z 06005KT 30/18 A2971 RMK A01 T02980178  RH  051%=      5-min Rain = 0
KNOR 152350Z 03005KT 29/18 A2972 RMK A01 T02920181  RH  054%=      5-min Rain = 0
KNOR 152355Z 36004KT 29/18 A2973 RMK A01 T02920179  RH  053%=      5-min Rain = 0
KNOR 160000Z 33006KT 29/18 A2975 RMK A01 T02870181  RH  056%=      5-min Rain = 0
KNOR 160005Z 34010KT 28/18 A2976 RMK A01 T02840177  RH  055%=      5-min Rain = 0
KNOR 160010Z 33011G16KT 29/17 A2978 RMK A01 T02870172  RH  052%=      5-min Rain = 0
KNOR 160015Z 30005KT 29/17 A2979 RMK A01 T02850174  RH  054%=      5-min Rain = 0
KNOR 160020Z 23005KT 28/18 A2979 RMK A01 T02820176  RH  055%=      5-min Rain = 0
KNOR 160025Z 20006KT 28/18 A2981 RMK A01 T02800175  RH  056%=      5-min Rain = 0
KNOR 160030Z 23012G30KT 28/17 A2984 RMK A01 T02800172  RH  055%=      5-min Rain = 0
KNOR 160035Z 26025G39KT 27/15 A2986 RMK A01 T02650147  RH  051%=      5-min Rain = 0
KNOR 160040Z 25045G71KT 20/16 A2987 RMK A01 T02000155  RH  080%=      5-min Rain = 0.08
KNOR 160045Z 27036G58KT 17/15 A2995 RMK A01 T01650151  RH  096%=      5-min Rain = 0.24
KNOR 160050Z 29029G43KT 17/15 A2996 RMK A01 T01650154  RH  097%=      5-min Rain = 0.21
KNOR 160055Z 32016G24KT 16/15 A2993 RMK A01 T01640154  RH  098%=      5-min Rain = 0.1
KNOR 160100Z 02015G20KT 16/15 A2987 RMK A01 T01640153  RH  098%=      5-min Rain = 0.04
KNOR 160105Z 04013G19KT 17/16 A2983 RMK A01 T01660156  RH  098%=      5-min Rain = 0.01
KNOR 160110Z 02014G19KT 17/16 A2983 RMK A01 T01650155  RH  098%=      5-min Rain = 0
KNOR 160115Z 35014G21KT 17/16 A2983 RMK A01 T01670157  RH  098%=      5-min Rain = 0
KNOR 160120Z 00018G23KT 17/16 A298 RMK A01 T01690159  RH  098%=      5-min Rain = 0
KNOR 160125Z 36016G21KT 18/16 A298 RMK A01 T01790157  RH  092%=      5-min Rain = 0
KNOR 160130Z 01014KT 20/14 A2978 RMK A01 T01950143  RH  075%=      5-min Rain = 0
KNOR 160135Z 01011KT 20/14 A2978 RMK A01 T02000139  RH  071%=      5-min Rain = 0
KNOR 160140Z 03014G19KT 20/14 A2977 RMK A01 T02010136  RH  069%=      5-min Rain = 0
KNOR 160145Z 05014G25KT 20/13 A2976 RMK A01 T02020133  RH  067%=      5-min Rain = 0
KNOR 160150Z 07011G16KT 21/13 A2975 RMK A01 T02050132  RH  066%=      5-min Rain = 0
KNOR 160155Z 05009G14KT 20/13 A2976 RMK A01 T02000134  RH  069%=      5-min Rain = 0
KNOR 160200Z 05009KT 20/13 A2976 RMK A01 T02020133  RH  067%=      5-min Rain = 0
KNOR 160205Z 09007KT 20/13 A2977 RMK A01 T02040134  RH  067%=      5-min Rain = 0
KNOR 160210Z 10006KT 20/14 A2979 RMK A01 T02020137  RH  069%=      5-min Rain = 0
KNOR 160215Z 13007KT 20/14 A2978 RMK A01 T02000138  RH  071%=      5-min Rain = 0
KNOR 160220Z 15004KT 20/14 A298 RMK A01 T02000139  RH  071%=      5-min Rain = 0
KNOR 160225Z 27005KT 19/15 A2982 RMK A01 T01940145  RH  077%=      5-min Rain = 0.01
KNOR 160230Z 01009G14KT 19/15 A2979 RMK A01 T01910145  RH  078%=      5-min Rain = 0.08
KNOR 160235Z 23009KT 18/15 A2979 RMK A01 T01840148  RH  083%=      5-min Rain = 0.01
KNOR 160240Z 28007KT 18/15 A2979 RMK A01 T01840146  RH  082%=      5-min Rain = 0
KNOR 160245Z 33008KT 19/15 A2978 RMK A01 T01880145  RH  080%=      5-min Rain = 0
KNOR 160250Z 34003KT 19/15 A2977 RMK A01 T01930145  RH  077%=      5-min Rain = 0
KNOR 160255Z 17004KT 19/15 A2977 RMK A01 T01880149  RH  082%=      5-min Rain = 0
KNOR 160300Z 15003KT 19/15 A2977 RMK A01 T01850150  RH  084%=      5-min Rain = 0
KNOR 160305Z 16003KT 19/15 A2978 RMK A01 T01870146  RH  080%=      5-min Rain = 0
KNOR 160310Z 16004KT 19/15 A2979 RMK A01 T01930146  RH  078%=      5-min Rain = 0
KNOR 160315Z 16008KT 19/15 A298 RMK A01 T01920147  RH  079%=      5-min Rain = 0
KNOR 160320Z 15004G10KT 19/14 A2979 RMK A01 T01910144  RH  078%=      5-min Rain = 0
KNOR 160325Z 15002KT 19/14 A2979 RMK A01 T01920144  RH  077%=      5-min Rain = 0
KNOR 160330Z 06001KT 19/15 A2979 RMK A01 T01930149  RH  079%=      5-min Rain = 0
KNOR 160335Z 06001KT 19/14 A298 RMK A01 T01930144  RH  077%=      5-min Rain = 0
KNOR 160340Z 09001KT 21/13 A2982 RMK A01 T02060130  RH  064%=      5-min Rain = 0
KNOR 160345Z 16002KT 20/15 A2983 RMK A01 T02040145  RH  072%=      5-min Rain = 0
KNOR 160350Z 22001KT 20/14 A2984 RMK A01 T01960142  RH  074%=      5-min Rain = 0
KNOR 160355Z 27001KT 20/14 A2984 RMK A01 T02000144  RH  073%=      5-min Rain = 0
KNOR 160400Z 14001KT 20/14 A2984 RMK A01 T02020139  RH  070%=      5-min Rain = 0
KNOR 160405Z 13002KT 21/14 A2982 RMK A01 T02050141  RH  069%=      5-min Rain = 0
KNOR 160410Z 21001KT 20/15 A298 RMK A01 T02030148  RH  074%=      5-min Rain = 0
KNOR 160415Z 30001KT 19/15 A2979 RMK A01 T01940148  RH  078%=      5-min Rain = 0
KNOR 160420Z 04003G9KT 20/14 A298 RMK A01 T02000139  RH  071%=      5-min Rain = 0
KNOR 160425Z 04002KT 21/13 A2981 RMK A01 T02100132  RH  064%=      5-min Rain = 0
KNOR 160430Z 06004KT 21/13 A2982 RMK A01 T02140130  RH  061%=      5-min Rain = 0
KNOR 160435Z 08004KT 21/13 A2983 RMK A01 T02130129  RH  061%=      5-min Rain = 0
KNOR 160440Z 08004KT 22/13 A2983 RMK A01 T02150127  RH  059%=      5-min Rain = 0
KNOR 160445Z 08004KT 21/13 A2983 RMK A01 T02130133  RH  063%=      5-min Rain = 0
KNOR 160450Z 11002KT 21/14 A2984 RMK A01 T02100135  RH  065%=      5-min Rain = 0
KNOR 160455Z 18004KT 20/15 A2986 RMK A01 T01980150  RH  078%=      5-min Rain = 0

Page generated in 0.0093 seconds.